Dobbins Air Reserve Base Airport
KMGE : now visible

Airfield :











YOU CAN JOIN US ON...

 
LOGIN :

Register | Disclaimer

   EN    FR    IT 

 









Legend :    VFR   Marginal VFR   IFR   Intensive IFR   Very Intensive IFR
Visi :
Ceiling :
>= 8 km
>= 3000ft
5 to 8 km
1000 to 3000 ft
1500m to 5 km
500 to 1000 ft
800 to 1500m
200 to 500 ft
< 800m
< 200 ft
Symbols :   Thunderstorms  Fog  Heavy snow  Heavy precipitations  Wind > 20 kt






- Airport Elevation : 1068 ft


KMGE - Dobbins Air Reserve Base

CURRENT METAR :
  • 121711Z 07008G16KT 4SM BR OVC006 12/11 A3017 RMK AO2A $

EXPIRED METARs :
  • 121635Z 07012KT 3SM -RA BR BKN006 OVC018 13/12 A3016 RMK AO2A $
  • 121555Z 03005KT 3SM BR OVC005 14/14 A3015 RMK AO2A SLP207 T01430140 $
  • 121456Z 33006KT 3SM BR OVC005 14/14 A3013 RMK AO2A SLP200 P0001 60026 T01380135 52011 $

TAF TAF KMGE
Valid from the 12 at 13:00 until the 13 at 19:00 UTC


121300Z 1213/1319 34006KT 4800 -RA BR OVC004 QNH3010INS
BECMG 1214/1215 07010G15KT 4800 -RA BR OVC004 QNH3011INS
BECMG 1217/1218 07012G20KT 8000 BR OVC006 QNH3011INS
BECMG 1220/1221 07010G15KT 9999 NSW OVC009 QNH3019INS
BECMG 1300/1301 09010G15KT 9999 OVC012 QNH3022INS
BECMG 1302/1303 09009KT 9999 BKN040 QNH3028INS
BECMG 1314/1315 08012G18KT 9999 BKN120 QNH3025INS TX14/1214Z TN09/1311Z
KZTL FIR / North America



MET'MAP, your aeronautical weather chart ! - Copyright ORBIFLY December 2007 - Disclaimer

ORBIFLY MET'MAP TEAM :

Programming & Development : Alexandra Zaïnal
Concept & original design : Baudouin d'Aumeries
Assistance for programming : Marc-Olivier Méhu
Technical & hardware support : Manuel Goepfert

Contact : metmap@orbifly.com




SOURCES & CREDITS :

   NOAA       Earth
Advisory